Time;durP1;ratioP1;P1;durP2;ratioP2;P2;SDS_P1;SDS_P2;PMS_P1;PMS_P2;Temp;Humidity;BMP_temperature;BMP_pressure;BME280_temperature;BME280_humidity;BME280_pressure;Samples;Min_cycle;Max_cycle;Signal;HPM_P1;HPM_P2
2024/02/21 00:02:22;;;;;;;66.30;7.33;;;;;;;;;;5073778;28;20810;-70
2024/02/21 00:04:49;;;;;;;63.27;7.47;;;;;;;;;;5073957;28;20445;-70
2024/02/21 00:07:16;;;;;;;68.10;8.47;;;;;;;;;;5073713;28;20454;-70
2024/02/21 00:09:43;;;;;;;63.47;7.17;;;;;;;;;;5073865;28;20794;-70
2024/02/21 00:12:13;;;;;;;66.97;7.83;;;;;;;;;;5073642;28;20434;-71
2024/02/21 00:14:41;;;;;;;62.90;8.47;;;;;;;;;;5073631;28;20516;-71
2024/02/21 00:17:08;;;;;;;65.53;7.90;;;;;;;;;;5073510;28;20967;-72
2024/02/21 00:19:35;;;;;;;62.67;7.30;;;;;;;;;;5073563;28;20448;-71
2024/02/21 00:22:03;;;;;;;62.70;7.43;;;;;;;;;;5073541;28;20448;-71
2024/02/21 00:24:30;;;;;;;64.10;7.37;;;;;;;;;;5073247;28;21027;-71
2024/02/21 00:26:57;;;;;;;61.70;7.17;;;;;;;;;;5072421;28;20472;-71
2024/02/21 00:29:25;;;;;;;64.93;7.70;;;;;;;;;;5073251;28;20535;-71
2024/02/21 00:31:52;;;;;;;64.97;7.47;;;;;;;;;;5073413;28;20470;-71
2024/02/21 00:34:19;;;;;;;66.10;7.50;;;;;;;;;;5072923;28;20460;-71
2024/02/21 00:36:47;;;;;;;64.30;7.87;;;;;;;;;;5073565;28;20472;-71
2024/02/21 00:39:14;;;;;;;65.33;7.60;;;;;;;;;;5072778;28;20448;-71
2024/02/21 00:41:41;;;;;;;63.73;8.07;;;;;;;;;;5073075;28;20451;-72
2024/02/21 00:44:09;;;;;;;67.97;8.00;;;;;;;;;;5072959;28;20489;-71
2024/02/21 00:46:38;;;;;;;62.97;7.43;;;;;;;;;;5073134;28;20472;-71
2024/02/21 00:49:05;;;;;;;65.00;8.33;;;;;;;;;;5072811;28;20456;-71
2024/02/21 00:51:33;;;;;;;67.40;8.07;;;;;;;;;;5072966;28;20821;-72
2024/02/21 00:54:01;;;;;;;65.53;8.43;;;;;;;;;;5072504;28;20450;-71
2024/02/21 00:56:29;;;;;;;62.47;6.93;;;;;;;;;;5073025;28;20474;-71
2024/02/21 00:58:56;;;;;;;67.03;8.03;;;;;;;;;;5072971;28;20829;-72
2024/02/21 01:01:23;;;;;;;68.27;7.50;;;;;;;;;;5072823;28;20444;-71
2024/02/21 01:03:53;;;;;;;63.73;7.13;;;;;;;;;;5072529;28;20491;-72
2024/02/21 01:06:20;;;;;;;67.10;7.70;;;;;;;;;;5072392;28;20504;-71
2024/02/21 01:08:48;;;;;;;67.50;7.37;;;;;;;;;;5072494;28;20929;-71
2024/02/21 01:11:15;;;;;;;62.47;6.37;;;;;;;;;;5072561;28;20515;-71
2024/02/21 01:13:42;;;;;;;65.90;7.97;;;;;;;;;;5072433;28;20450;-71
2024/02/21 01:16:09;;;;;;;63.57;8.60;;;;;;;;;;5072391;28;20918;-71
2024/02/21 01:18:39;;;;;;;62.90;7.03;;;;;;;;;;5072467;28;20448;-70
2024/02/21 01:21:07;;;;;;;65.40;7.80;;;;;;;;;;5072076;28;20544;-70
2024/02/21 01:23:34;;;;;;;65.60;6.93;;;;;;;;;;5072185;28;20488;-70
2024/02/21 01:26:02;;;;;;;61.53;6.60;;;;;;;;;;5072444;28;20844;-69
2024/02/21 01:28:29;;;;;;;63.37;7.43;;;;;;;;;;5072049;28;20452;-70
2024/02/21 01:30:56;;;;;;;60.37;5.93;;;;;;;;;;5072162;28;20837;-70
2024/02/21 01:33:24;;;;;;;61.87;6.80;;;;;;;;;;5071614;28;20450;-70
2024/02/21 01:35:51;;;;;;;62.77;6.93;;;;;;;;;;5072227;28;20472;-70
2024/02/21 01:38:19;;;;;;;62.47;6.27;;;;;;;;;;5071480;28;20464;-70
2024/02/21 01:40:46;;;;;;;64.27;6.63;;;;;;;;;;5071936;28;20470;-69
2024/02/21 01:43:17;;;;;;;60.87;7.00;;;;;;;;;;5071684;28;20492;-70
2024/02/21 01:45:44;;;;;;;64.90;6.17;;;;;;;;;;5071836;28;20468;-70
2024/02/21 01:48:12;;;;;;;61.70;5.60;;;;;;;;;;5071657;28;20480;-71
2024/02/21 01:50:39;;;;;;;62.63;6.87;;;;;;;;;;5071798;28;20835;-70
2024/02/21 01:53:06;;;;;;;61.73;7.20;;;;;;;;;;5071849;28;20448;-71
2024/02/21 01:55:34;;;;;;;60.50;6.60;;;;;;;;;;5071934;28;20465;-70
2024/02/21 01:58:02;;;;;;;59.27;5.90;;;;;;;;;;5071615;28;20447;-70
2024/02/21 02:00:29;;;;;;;73.27;6.93;;;;;;;;;;5071669;28;20519;-70
2024/02/21 02:02:56;;;;;;;65.43;7.00;;;;;;;;;;5071493;28;20539;-71
2024/02/21 02:05:24;;;;;;;62.80;6.80;;;;;;;;;;5071568;28;20467;-70
2024/02/21 02:07:51;;;;;;;60.73;6.27;;;;;;;;;;5071742;28;20457;-70
2024/02/21 02:10:18;;;;;;;62.63;6.17;;;;;;;;;;5071545;28;20455;-71
2024/02/21 02:12:46;;;;;;;60.40;6.50;;;;;;;;;;5071555;28;20452;-70
2024/02/21 02:15:13;;;;;;;63.70;6.27;;;;;;;;;;5071336;28;20972;-70
2024/02/21 02:17:40;;;;;;;61.03;6.63;;;;;;;;;;5071809;28;20443;-71
2024/02/21 02:20:08;;;;;;;64.80;6.50;;;;;;;;;;5071733;28;20789;-70
2024/02/21 02:22:37;;;;;;;64.17;6.90;;;;;;;;;;5071244;28;20934;-70
2024/02/21 02:25:06;;;;;;;63.70;5.83;;;;;;;;;;5071435;28;20578;-71
2024/02/21 02:27:33;;;;;;;66.80;6.57;;;;;;;;;;5071370;28;20834;-70
2024/02/21 02:30:00;;;;;;;70.63;7.30;;;;;;;;;;5071745;28;20445;-71
2024/02/21 02:32:27;;;;;;;65.90;6.50;;;;;;;;;;5071342;28;20447;-71
2024/02/21 02:34:55;;;;;;;65.40;6.70;;;;;;;;;;5071241;28;20835;-71
2024/02/21 02:37:22;;;;;;;63.27;5.60;;;;;;;;;;5071383;28;20457;-72
2024/02/21 02:39:49;;;;;;;61.27;5.90;;;;;;;;;;5071346;28;20822;-70
2024/02/21 02:42:18;;;;;;;64.03;6.90;;;;;;;;;;5070946;28;20844;-70
2024/02/21 02:44:45;;;;;;;63.93;7.47;;;;;;;;;;5071401;28;20495;-71
2024/02/21 02:47:12;;;;;;;61.80;6.57;;;;;;;;;;5070747;28;20456;-70
2024/02/21 02:49:39;;;;;;;60.20;6.00;;;;;;;;;;5071031;28;20454;-71
2024/02/21 02:52:06;;;;;;;59.67;5.40;;;;;;;;;;5074413;28;20446;-70
2024/02/21 02:54:33;;;;;;;60.07;5.33;;;;;;;;;;5075200;28;20449;-70
2024/02/21 02:57:00;;;;;;;62.63;5.03;;;;;;;;;;5075019;28;20468;-70
2024/02/21 02:59:29;;;;;;;65.83;5.47;;;;;;;;;;5075012;28;20452;-70
2024/02/21 03:01:56;;;;;;;64.77;5.33;;;;;;;;;;5074888;28;20444;-70
2024/02/21 03:04:23;;;;;;;64.30;5.30;;;;;;;;;;5074576;28;20869;-71
2024/02/21 03:06:50;;;;;;;63.87;5.87;;;;;;;;;;5075161;28;20468;-71
2024/02/21 03:09:17;;;;;;;64.80;5.63;;;;;;;;;;5075051;28;20460;-70
2024/02/21 03:11:45;;;;;;;60.60;5.40;;;;;;;;;;5074992;28;20454;-70
2024/02/21 03:14:12;;;;;;;64.20;5.80;;;;;;;;;;5074750;28;20778;-70
2024/02/21 03:16:40;;;;;;;58.57;5.43;;;;;;;;;;5074558;28;20496;-70
2024/02/21 03:19:07;;;;;;;64.97;5.40;;;;;;;;;;5074757;28;20443;-70
2024/02/21 03:21:35;;;;;;;62.10;5.47;;;;;;;;;;5074758;28;20450;-70
2024/02/21 03:24:02;;;;;;;62.90;5.90;;;;;;;;;;5074102;28;20488;-70
2024/02/21 03:26:29;;;;;;;59.10;5.10;;;;;;;;;;5074399;28;20578;-70
2024/02/21 03:28:56;;;;;;;58.77;4.97;;;;;;;;;;5074837;28;20440;-70
2024/02/21 03:31:23;;;;;;;61.27;5.70;;;;;;;;;;5074295;28;20823;-70
2024/02/21 03:33:51;;;;;;;60.63;5.00;;;;;;;;;;5074053;28;20540;-70
2024/02/21 03:36:18;;;;;;;62.17;5.40;;;;;;;;;;5073904;28;20833;-70
2024/02/21 03:38:46;;;;;;;60.37;5.67;;;;;;;;;;5061178;28;20472;-70
2024/02/21 03:41:13;;;;;;;63.47;6.07;;;;;;;;;;5054101;28;20767;-70
2024/02/21 03:43:40;;;;;;;64.37;5.10;;;;;;;;;;5054050;28;20453;-70
2024/02/21 03:46:07;;;;;;;72.70;5.90;;;;;;;;;;5053903;28;20474;-70
2024/02/21 03:48:34;;;;;;;61.10;5.40;;;;;;;;;;5054032;28;20448;-71
2024/02/21 03:51:03;;;;;;;63.40;4.90;;;;;;;;;;5054288;28;20840;-69
2024/02/21 03:53:30;;;;;;;64.37;4.93;;;;;;;;;;5053686;28;20445;-71
2024/02/21 03:56:02;;;;;;;59.90;5.77;;;;;;;;;;5054047;28;20476;-69
2024/02/21 03:58:29;;;;;;;62.17;5.83;;;;;;;;;;5053459;28;20536;-69
2024/02/21 04:00:56;;;;;;;58.60;4.97;;;;;;;;;;5054103;28;20544;-70
2024/02/21 04:03:23;;;;;;;61.73;4.80;;;;;;;;;;5053488;28;20449;-70
2024/02/21 04:05:51;;;;;;;60.07;5.43;;;;;;;;;;5053699;28;20488;-70
2024/02/21 04:08:19;;;;;;;65.30;6.40;;;;;;;;;;5053697;28;20453;-70
2024/02/21 04:10:46;;;;;;;62.90;5.57;;;;;;;;;;5053667;28;20476;-71
2024/02/21 04:13:13;;;;;;;61.67;5.47;;;;;;;;;;5053597;28;20453;-70
2024/02/21 04:15:40;;;;;;;59.17;4.60;;;;;;;;;;5065529;28;20467;-71
2024/02/21 04:18:08;;;;;;;62.00;5.03;;;;;;;;;;5073487;28;20936;-70
2024/02/21 04:20:35;;;;;;;57.90;4.90;;;;;;;;;;5073548;28;20444;-69
2024/02/21 04:23:03;;;;;;;67.80;5.70;;;;;;;;;;5073285;28;20451;-71
2024/02/21 04:25:31;;;;;;;59.00;5.50;;;;;;;;;;5073070;28;21004;-70
2024/02/21 04:27:58;;;;;;;61.00;5.73;;;;;;;;;;5073411;28;20448;-70
2024/02/21 04:30:25;;;;;;;60.77;6.87;;;;;;;;;;5073470;28;20464;-70
2024/02/21 04:32:52;;;;;;;61.57;5.37;;;;;;;;;;5073273;28;20459;-69
2024/02/21 04:35:19;;;;;;;61.27;4.87;;;;;;;;;;5072692;28;20917;-69
2024/02/21 04:37:46;;;;;;;62.00;6.43;;;;;;;;;;5073102;28;20452;-70
2024/02/21 04:40:14;;;;;;;65.93;7.00;;;;;;;;;;5073024;28;20443;-70
2024/02/21 04:42:43;;;;;;;63.00;5.20;;;;;;;;;;5072870;28;20460;-70
2024/02/21 04:45:10;;;;;;;60.83;5.10;;;;;;;;;;5073051;28;20483;-70
2024/02/21 04:47:37;;;;;;;59.37;5.20;;;;;;;;;;5072859;28;20449;-70
2024/02/21 04:50:05;;;;;;;60.57;6.07;;;;;;;;;;5072925;28;20797;-70
2024/02/21 04:52:33;;;;;;;60.07;5.27;;;;;;;;;;5072499;28;20498;-69
2024/02/21 04:55:00;;;;;;;59.47;5.00;;;;;;;;;;5072685;28;20936;-70
2024/02/21 04:57:27;;;;;;;65.03;6.27;;;;;;;;;;5072738;28;20835;-69
2024/02/21 04:59:55;;;;;;;63.73;5.63;;;;;;;;;;5072788;28;20466;-69
2024/02/21 05:02:24;;;;;;;61.43;5.17;;;;;;;;;;5072332;28;20450;-69
2024/02/21 05:04:51;;;;;;;60.60;5.20;;;;;;;;;;5072480;28;20486;-68
2024/02/21 05:07:19;;;;;;;61.30;5.10;;;;;;;;;;5072001;28;20454;-69
2024/02/21 05:09:46;;;;;;;60.97;5.70;;;;;;;;;;5052489;28;20950;-69
2024/02/21 05:12:13;;;;;;;59.50;4.93;;;;;;;;;;5052523;28;20564;-70
2024/02/21 05:14:40;;;;;;;63.43;5.57;;;;;;;;;;5051773;28;20452;-69
2024/02/21 05:17:09;;;;;;;61.57;5.63;;;;;;;;;;5052294;28;20455;-69
2024/02/21 05:19:36;;;;;;;63.43;5.40;;;;;;;;;;5052140;28;20448;-70
2024/02/21 05:22:03;;;;;;;62.17;6.03;;;;;;;;;;5052231;28;20480;-69
2024/02/21 05:24:30;;;;;;;64.30;6.23;;;;;;;;;;5051828;28;21024;-69
2024/02/21 05:26:57;;;;;;;60.20;5.40;;;;;;;;;;5052030;28;20582;-69
2024/02/21 05:29:24;;;;;;;62.07;5.93;;;;;;;;;;5052095;28;20458;-69
2024/02/21 05:31:58;;;;;;;61.20;5.87;;;;;;;;;;5052188;28;20457;-69
2024/02/21 05:34:27;;;;;;;61.30;6.27;;;;;;;;;;5051692;28;20448;-69
2024/02/21 05:36:54;;;;;;;61.63;6.20;;;;;;;;;;5051770;28;20475;-69
2024/02/21 05:39:22;;;;;;;63.27;7.20;;;;;;;;;;5052039;28;20452;-69
2024/02/21 05:41:50;;;;;;;62.97;6.90;;;;;;;;;;5051953;28;20456;-69
2024/02/21 05:44:17;;;;;;;59.43;6.40;;;;;;;;;;5051658;28;20503;-69
2024/02/21 05:46:45;;;;;;;64.30;6.67;;;;;;;;;;5063664;28;20805;-73
2024/02/21 05:49:12;;;;;;;68.60;6.80;;;;;;;;;;5071816;28;20517;-70
2024/02/21 05:51:40;;;;;;;61.60;6.57;;;;;;;;;;5071727;28;20807;-70
2024/02/21 05:54:08;;;;;;;61.00;6.97;;;;;;;;;;5071681;28;20444;-69
2024/02/21 05:56:35;;;;;;;63.90;5.97;;;;;;;;;;5071484;28;20461;-70
2024/02/21 05:59:02;;;;;;;62.17;6.30;;;;;;;;;;5071551;28;20649;-69
2024/02/21 06:01:29;;;;;;;63.00;6.63;;;;;;;;;;5071206;28;20452;-69
2024/02/21 06:03:56;;;;;;;66.30;8.00;;;;;;;;;;5071545;28;20443;-70
2024/02/21 06:06:23;;;;;;;66.63;7.07;;;;;;;;;;5070813;28;21010;-70
2024/02/21 06:08:52;;;;;;;64.43;8.20;;;;;;;;;;5051705;28;20448;-71
2024/02/21 06:11:19;;;;;;;68.00;9.70;;;;;;;;;;5051817;28;20449;-69
2024/02/21 06:13:46;;;;;;;62.73;6.97;;;;;;;;;;5063387;28;20448;-69
2024/02/21 06:16:13;;;;;;;63.87;7.00;;;;;;;;;;5071795;28;20979;-70
2024/02/21 06:18:40;;;;;;;63.83;6.60;;;;;;;;;;5071610;28;20447;-69
2024/02/21 06:21:07;;;;;;;63.10;6.30;;;;;;;;;;5071831;28;20466;-69
2024/02/21 06:23:34;;;;;;;69.20;7.73;;;;;;;;;;5071780;28;20443;-69
2024/02/21 06:26:03;;;;;;;68.27;6.60;;;;;;;;;;5071487;28;20486;-69
2024/02/21 06:28:30;;;;;;;63.20;6.33;;;;;;;;;;5071257;28;20939;-69
2024/02/21 06:30:57;;;;;;;63.40;6.43;;;;;;;;;;5071688;28;20459;-69
2024/02/21 06:33:24;;;;;;;60.70;5.82;;;;;;;;;;5054369;28;20198;-69
2024/02/21 06:35:53;;;;;;;62.67;6.93;;;;;;;;;;5051916;28;20214;-69
2024/02/21 06:38:20;;;;;;;66.97;7.03;;;;;;;;;;5051069;28;20506;-70
2024/02/21 06:40:49;;;;;;;63.47;7.50;;;;;;;;;;5063022;28;20653;-70
2024/02/21 06:43:19;;;;;;;62.87;6.83;;;;;;;;;;5071688;28;20447;-69
2024/02/21 06:45:50;;;;;;;61.10;6.40;;;;;;;;;;5071457;28;20490;-70
2024/02/21 06:48:17;;;;;;;64.10;6.60;;;;;;;;;;5071229;28;20463;-71
2024/02/21 06:50:44;;;;;;;62.77;5.90;;;;;;;;;;5071377;28;20449;-70
2024/02/21 06:53:11;;;;;;;66.53;6.63;;;;;;;;;;5071125;28;20452;-70
2024/02/21 06:55:38;;;;;;;61.20;6.57;;;;;;;;;;5070889;28;20473;-69
2024/02/21 06:58:08;;;;;;;59.47;5.70;;;;;;;;;;5070958;28;20455;-70
2024/02/21 07:00:36;;;;;;;60.90;6.10;;;;;;;;;;5070941;28;20458;-69
2024/02/21 07:03:04;;;;;;;61.87;7.00;;;;;;;;;;5071142;28;20822;-70
2024/02/21 07:05:31;;;;;;;63.87;6.23;;;;;;;;;;5070818;28;20494;-70
2024/02/21 07:07:58;;;;;;;64.90;6.97;;;;;;;;;;5071071;28;20454;-70
2024/02/21 07:10:25;;;;;;;62.50;6.60;;;;;;;;;;5070934;28;20823;-69
2024/02/21 07:12:52;;;;;;;68.63;6.30;;;;;;;;;;5050938;28;20478;-70
2024/02/21 07:15:19;;;;;;;69.40;7.43;;;;;;;;;;5051040;28;20521;-71
2024/02/21 07:17:48;;;;;;;65.17;6.83;;;;;;;;;;5051307;28;20451;-70
2024/02/21 07:20:15;;;;;;;61.70;7.37;;;;;;;;;;5051085;28;20448;-70
2024/02/21 07:22:42;;;;;;;68.47;7.07;;;;;;;;;;5050434;28;20444;-70
2024/02/21 07:25:09;;;;;;;62.77;7.47;;;;;;;;;;5050992;28;20527;-70
2024/02/21 07:27:37;;;;;;;65.77;7.83;;;;;;;;;;5050819;28;20810;-69
2024/02/21 07:30:04;;;;;;;61.07;6.90;;;;;;;;;;5051084;28;20493;-71
2024/02/21 07:32:31;;;;;;;64.97;6.67;;;;;;;;;;5050431;28;20933;-70
2024/02/21 07:35:00;;;;;;;63.17;6.70;;;;;;;;;;5050688;28;20861;-71
2024/02/21 07:37:27;;;;;;;64.10;7.00;;;;;;;;;;5053130;28;20551;-70
2024/02/21 07:39:54;;;;;;;61.63;6.53;;;;;;;;;;5054669;28;20454;-71
2024/02/21 07:42:21;;;;;;;63.77;6.90;;;;;;;;;;5054034;28;20455;-69
2024/02/21 07:44:48;;;;;;;63.27;6.67;;;;;;;;;;5054149;28;20448;-70
2024/02/21 07:47:15;;;;;;;63.90;5.47;;;;;;;;;;5054603;28;20953;-70
2024/02/21 07:49:43;;;;;;;62.77;6.20;;;;;;;;;;5054057;28;20540;-71
2024/02/21 07:52:11;;;;;;;68.23;6.53;;;;;;;;;;5054226;28;20824;-69
2024/02/21 07:54:38;;;;;;;61.50;5.17;;;;;;;;;;5053705;28;20456;-70
2024/02/21 07:57:05;;;;;;;61.00;5.10;;;;;;;;;;5054085;28;20817;-70
2024/02/21 07:59:32;;;;;;;61.83;5.13;;;;;;;;;;5054204;28;20496;-70
2024/02/21 08:02:00;;;;;;;59.37;4.73;;;;;;;;;;5053960;28;20457;-70
2024/02/21 08:04:27;;;;;;;62.53;5.30;;;;;;;;;;5053654;28;20449;-69
2024/02/21 08:06:55;;;;;;;60.60;4.83;;;;;;;;;;5053973;28;20480;-70
2024/02/21 08:09:23;;;;;;;62.20;5.60;;;;;;;;;;5053941;28;20453;-70
2024/02/21 08:11:51;;;;;;;60.73;4.80;;;;;;;;;;5065579;28;20455;-70
2024/02/21 08:14:18;;;;;;;64.60;5.43;;;;;;;;;;5073565;28;20448;-70
2024/02/21 08:16:45;;;;;;;62.43;5.37;;;;;;;;;;5073533;28;20464;-70
2024/02/21 08:19:13;;;;;;;64.00;5.87;;;;;;;;;;5073889;28;20448;-70
2024/02/21 08:21:40;;;;;;;60.00;5.00;;;;;;;;;;5073535;28;20461;-71
2024/02/21 08:24:07;;;;;;;62.37;5.07;;;;;;;;;;5073542;28;20448;-71
2024/02/21 08:26:36;;;;;;;65.57;5.10;;;;;;;;;;5073420;28;20488;-71
2024/02/21 08:29:03;;;;;;;59.97;5.17;;;;;;;;;;5073594;28;20457;-70
2024/02/21 08:31:31;;;;;;;61.57;4.93;;;;;;;;;;5073238;28;20463;-70
2024/02/21 08:34:02;;;;;;;60.17;4.50;;;;;;;;;;5073020;28;21018;-70
2024/02/21 08:36:30;;;;;;;61.43;4.60;;;;;;;;;;5073459;28;20632;-70
2024/02/21 08:38:57;;;;;;;63.13;5.40;;;;;;;;;;5073452;28;20446;-70
2024/02/21 08:41:25;;;;;;;60.93;4.33;;;;;;;;;;5073300;28;20497;-70
2024/02/21 08:43:54;;;;;;;62.37;4.27;;;;;;;;;;5073018;28;20449;-70
2024/02/21 08:46:21;;;;;;;62.37;3.80;;;;;;;;;;5073410;28;20579;-70
2024/02/21 08:48:49;;;;;;;58.50;3.40;;;;;;;;;;5071956;28;20450;-70
2024/02/21 08:51:16;;;;;;;59.57;4.30;;;;;;;;;;5072934;28;20458;-70
2024/02/21 08:53:43;;;;;;;61.50;4.27;;;;;;;;;;5072689;28;20448;-69
2024/02/21 08:56:10;;;;;;;60.17;4.00;;;;;;;;;;5058923;28;20554;-70
2024/02/21 08:58:37;;;;;;;64.60;4.80;;;;;;;;;;5052867;28;20443;-70
2024/02/21 09:01:06;;;;;;;59.10;3.90;;;;;;;;;;5053044;28;20438;-70
2024/02/21 09:03:33;;;;;;;59.80;3.90;;;;;;;;;;5052642;28;20501;-72
2024/02/21 09:06:01;;;;;;;58.67;4.10;;;;;;;;;;5052941;28;21005;-70
2024/02/21 09:08:28;;;;;;;56.97;3.60;;;;;;;;;;5052749;28;20451;-69
2024/02/21 09:10:55;;;;;;;59.47;3.50;;;;;;;;;;5064517;28;20454;-69
2024/02/21 09:13:23;;;;;;;59.53;3.70;;;;;;;;;;5072607;28;20453;-69
2024/02/21 09:15:50;;;;;;;62.70;3.97;;;;;;;;;;5072565;28;20469;-70
2024/02/21 09:18:19;;;;;;;57.80;3.80;;;;;;;;;;5072447;28;20458;-69
2024/02/21 09:20:47;;;;;;;57.50;3.70;;;;;;;;;;5072386;28;20464;-69
2024/02/21 09:23:14;;;;;;;61.43;3.43;;;;;;;;;;5072817;28;20493;-70
2024/02/21 09:25:40;;;;;;;58.70;3.60;;;;;;;;;;5072411;28;20497;-70
2024/02/21 09:28:07;;;;;;;66.33;4.30;;;;;;;;;;5072314;28;20940;-70
2024/02/21 09:30:35;;;;;;;59.87;4.03;;;;;;;;;;5072496;28;20470;-70
2024/02/21 09:33:02;;;;;;;59.33;3.63;;;;;;;;;;5072239;28;20452;-69
2024/02/21 09:35:30;;;;;;;58.70;3.73;;;;;;;;;;5072258;28;20483;-70
2024/02/21 09:37:57;;;;;;;58.97;4.20;;;;;;;;;;5064209;28;20451;-70
2024/02/21 09:40:26;;;;;;;60.13;4.07;;;;;;;;;;5072237;28;20443;-71
2024/02/21 09:42:59;;;;;;;59.10;4.13;;;;;;;;;;5072111;28;20970;-70
2024/02/21 09:45:26;;;;;;;60.47;3.70;;;;;;;;;;5071914;28;20473;-71
2024/02/21 09:48:02;;;;;;;57.60;3.60;;;;;;;;;;5071805;28;20445;-71
2024/02/21 09:50:32;;;;;;;57.67;3.93;;;;;;;;;;5071990;28;20833;-71
2024/02/21 09:53:01;;;;;;;64.17;5.23;;;;;;;;;;5072231;28;20880;-71
2024/02/21 09:55:29;;;;;;;58.87;3.50;;;;;;;;;;5072055;28;20509;-71
2024/02/21 09:57:56;;;;;;;58.87;3.57;;;;;;;;;;5063556;28;20520;-70
2024/02/21 10:00:23;;;;;;;62.07;4.70;;;;;;;;;;5071671;28;20444;-71
2024/02/21 10:02:50;;;;;;;62.37;3.73;;;;;;;;;;5063498;28;20446;-70
2024/02/21 10:05:18;;;;;;;59.70;3.93;;;;;;;;;;5071448;28;20467;-70
2024/02/21 10:07:46;;;;;;;60.70;3.60;;;;;;;;;;5071555;28;20573;-70
2024/02/21 10:10:14;;;;;;;59.00;4.07;;;;;;;;;;5072302;28;20454;-70
2024/02/21 10:12:49;;;;;;;59.80;4.80;;;;;;;;;;5071891;28;20462;-70
2024/02/21 10:15:21;;;;;;;61.77;4.17;;;;;;;;;;5071737;28;20470;-70
2024/02/21 10:17:48;;;;;;;59.37;3.40;;;;;;;;;;5071517;28;20811;-70
2024/02/21 10:20:16;;;;;;;60.23;3.80;;;;;;;;;;5071980;28;20440;-72
2024/02/21 10:22:43;;;;;;;61.23;4.73;;;;;;;;;;5071385;28;20470;-72
2024/02/21 10:25:12;;;;;;;61.57;3.80;;;;;;;;;;5071489;28;20994;-71
2024/02/21 10:27:39;;;;;;;61.37;3.90;;;;;;;;;;5071475;28;21018;-72
2024/02/21 10:30:07;;;;;;;63.60;3.80;;;;;;;;;;5071777;28;20454;-70
2024/02/21 10:32:34;;;;;;;58.63;3.73;;;;;;;;;;5071218;28;20452;-70
2024/02/21 10:35:05;;;;;;;58.73;3.83;;;;;;;;;;5071538;28;20838;-71
2024/02/21 10:37:32;;;;;;;59.97;3.70;;;;;;;;;;5071955;28;20573;-73
2024/02/21 10:39:59;;;;;;;59.40;3.67;;;;;;;;;;5071668;28;20445;-72
2024/02/21 10:42:31;;;;;;;58.70;3.70;;;;;;;;;;5071206;28;20454;-70
2024/02/21 10:45:04;;;;;;;60.37;3.90;;;;;;;;;;5063539;28;20451;-71
2024/02/21 10:47:32;;;;;;;59.60;3.60;;;;;;;;;;5071562;28;20491;-69
2024/02/21 10:50:03;;;;;;;59.67;3.80;;;;;;;;;;5071639;28;20817;-70
2024/02/21 10:52:34;;;;;;;62.03;3.70;;;;;;;;;;5071189;28;20451;-70
2024/02/21 10:55:04;;;;;;;58.40;3.43;;;;;;;;;;5071352;28;20452;-70
2024/02/21 10:57:34;;;;;;;62.07;3.77;;;;;;;;;;5071320;28;20975;-71
2024/02/21 11:00:03;;;;;;;57.80;3.60;;;;;;;;;;5063539;28;20455;-70
2024/02/21 11:02:31;;;;;;;57.70;3.20;;;;;;;;;;5071422;28;20550;-71
2024/02/21 11:04:58;;;;;;;58.90;3.70;;;;;;;;;;5071297;28;20793;-71
2024/02/21 11:07:26;;;;;;;59.70;3.57;;;;;;;;;;5071319;28;20483;-70
2024/02/21 11:09:54;;;;;;;58.97;2.90;;;;;;;;;;5070369;28;20824;-70
2024/02/21 11:12:22;;;;;;;64.27;4.07;;;;;;;;;;5072797;28;20539;-70
2024/02/21 11:14:50;;;;;;;57.93;3.70;;;;;;;;;;5056348;28;20452;-70
2024/02/21 11:17:18;;;;;;;57.80;3.73;;;;;;;;;;5055017;28;20441;-70
2024/02/21 11:19:45;;;;;;;57.80;3.67;;;;;;;;;;5054538;28;20456;-70
2024/02/21 11:22:16;;;;;;;59.47;3.53;;;;;;;;;;5055158;28;20445;-71
2024/02/21 11:24:43;;;;;;;59.20;3.50;;;;;;;;;;5055031;28;20451;-70
2024/02/21 11:27:11;;;;;;;57.77;3.30;;;;;;;;;;5055234;28;20495;-70
2024/02/21 11:29:42;;;;;;;59.40;3.17;;;;;;;;;;5054594;28;20449;-71
2024/02/21 11:32:12;;;;;;;58.70;2.97;;;;;;;;;;5055093;28;20536;-71
2024/02/21 11:34:40;;;;;;;61.63;4.30;;;;;;;;;;5054327;28;20456;-70
2024/02/21 11:37:15;;;;;;;61.20;3.10;;;;;;;;;;5054576;28;20464;-70
2024/02/21 11:39:42;;;;;;;57.07;2.83;;;;;;;;;;5054555;28;20460;-70
2024/02/21 11:42:10;;;;;;;62.90;3.40;;;;;;;;;;5054346;28;20449;-71
2024/02/21 11:44:39;;;;;;;58.20;3.40;;;;;;;;;;5062939;28;20455;-71
2024/02/21 11:47:06;;;;;;;60.40;3.83;;;;;;;;;;5074213;28;20479;-71
2024/02/21 11:49:37;;;;;;;56.40;3.03;;;;;;;;;;5074645;28;20447;-71
2024/02/21 11:52:05;;;;;;;59.30;3.27;;;;;;;;;;5074813;28;20459;-71
2024/02/21 11:54:32;;;;;;;57.17;2.90;;;;;;;;;;5074232;28;20876;-70
2024/02/21 11:57:00;;;;;;;61.67;3.47;;;;;;;;;;5074209;28;20456;-70
2024/02/21 11:59:27;;;;;;;58.50;3.23;;;;;;;;;;5074138;28;20446;-72
2024/02/21 12:01:54;;;;;;;58.20;3.27;;;;;;;;;;5074225;28;20992;-71
2024/02/21 12:04:23;;;;;;;58.60;3.07;;;;;;;;;;5074005;28;20452;-69
2024/02/21 12:06:54;;;;;;;57.20;2.93;;;;;;;;;;5073909;28;20598;-72
2024/02/21 12:09:21;;;;;;;59.50;3.47;;;;;;;;;;5074284;28;20450;-70
2024/02/21 12:11:58;;;;;;;58.33;3.80;;;;;;;;;;5073843;28;20448;-70
2024/02/21 12:14:26;;;;;;;58.40;2.93;;;;;;;;;;5073671;28;20866;-72
2024/02/21 12:16:53;;;;;;;58.00;3.20;;;;;;;;;;5073896;28;20459;-71
2024/02/21 12:19:21;;;;;;;60.53;3.10;;;;;;;;;;5074027;28;20440;-70
2024/02/21 12:21:49;;;;;;;58.73;3.20;;;;;;;;;;5073823;28;20447;-70
2024/02/21 12:24:20;;;;;;;59.33;2.90;;;;;;;;;;5073342;28;20452;-70
2024/02/21 12:26:47;;;;;;;57.17;3.10;;;;;;;;;;5073325;28;20527;-70
2024/02/21 12:29:14;;;;;;;58.07;2.90;;;;;;;;;;5073921;28;20450;-71
2024/02/21 12:31:41;;;;;;;58.20;3.10;;;;;;;;;;5073633;28;20460;-72
2024/02/21 12:34:09;;;;;;;58.90;3.97;;;;;;;;;;5073272;28;20463;-70
2024/02/21 12:36:37;;;;;;;56.17;2.97;;;;;;;;;;5073401;28;20468;-71
2024/02/21 12:39:04;;;;;;;57.67;2.80;;;;;;;;;;5073586;28;20441;-72
2024/02/21 12:41:33;;;;;;;57.17;2.90;;;;;;;;;;5073841;28;20539;-71
2024/02/21 12:44:00;;;;;;;57.30;3.00;;;;;;;;;;5073195;28;20436;-71
2024/02/21 12:46:27;;;;;;;56.37;2.60;;;;;;;;;;5073460;28;20503;-71
2024/02/21 12:48:54;;;;;;;56.30;2.57;;;;;;;;;;5073331;28;20448;-69
2024/02/21 12:51:21;;;;;;;58.03;2.67;;;;;;;;;;5058793;28;21008;-70
2024/02/21 12:53:49;;;;;;;58.70;2.90;;;;;;;;;;5052854;28;20451;-70
2024/02/21 12:56:16;;;;;;;56.70;2.60;;;;;;;;;;5053411;28;20507;-70
2024/02/21 12:58:45;;;;;;;58.33;2.70;;;;;;;;;;5053028;28;20455;-70
2024/02/21 13:01:12;;;;;;;56.33;2.83;;;;;;;;;;5052781;28;20499;-71
2024/02/21 13:03:39;;;;;;;55.77;2.50;;;;;;;;;;5052685;28;20457;-73
2024/02/21 13:06:08;;;;;;;57.57;2.60;;;;;;;;;;5053519;28;20832;-72
2024/02/21 13:08:35;;;;;;;56.97;2.63;;;;;;;;;;5052613;28;20583;-72
2024/02/21 13:11:02;;;;;;;58.30;3.00;;;;;;;;;;5052880;28;20456;-72
2024/02/21 13:13:29;;;;;;;56.17;2.70;;;;;;;;;;5052808;28;20449;-72
2024/02/21 13:15:58;;;;;;;55.90;2.50;;;;;;;;;;5052838;28;20547;-72
2024/02/21 13:18:25;;;;;;;57.67;2.80;;;;;;;;;;5052646;28;20449;-72
2024/02/21 13:20:53;;;;;;;58.10;2.80;;;;;;;;;;5052478;28;20451;-72
2024/02/21 13:23:22;;;;;;;57.40;2.57;;;;;;;;;;5052953;28;20441;-71
2024/02/21 13:25:50;;;;;;;57.80;2.87;;;;;;;;;;5052653;28;20468;-72
2024/02/21 13:28:17;;;;;;;57.70;2.60;;;;;;;;;;5052370;28;20491;-71
2024/02/21 13:30:45;;;;;;;57.60;2.80;;;;;;;;;;5052495;28;20457;-73
2024/02/21 13:33:14;;;;;;;57.17;2.73;;;;;;;;;;5052529;28;20455;-72
2024/02/21 13:35:42;;;;;;;56.87;2.63;;;;;;;;;;5052055;28;20822;-71
2024/02/21 13:38:09;;;;;;;58.77;2.50;;;;;;;;;;5064447;28;20440;-71
2024/02/21 13:40:36;;;;;;;56.53;3.00;;;;;;;;;;5072563;28;20483;-72
2024/02/21 13:43:04;;;;;;;56.10;2.47;;;;;;;;;;5072393;28;20940;-70
2024/02/21 13:45:31;;;;;;;57.30;2.90;;;;;;;;;;5072299;28;20467;-71
2024/02/21 13:47:59;;;;;;;57.70;2.63;;;;;;;;;;5071805;28;20549;-70
2024/02/21 13:50:31;;;;;;;56.27;2.63;;;;;;;;;;5072535;28;20448;-71
2024/02/21 13:52:58;;;;;;;58.10;2.77;;;;;;;;;;5072310;28;20542;-71
2024/02/21 13:55:26;;;;;;;56.30;2.60;;;;;;;;;;5071946;28;20543;-71
2024/02/21 13:57:54;;;;;;;56.53;2.63;;;;;;;;;;5071694;28;20455;-71
2024/02/21 14:00:21;;;;;;;55.77;2.37;;;;;;;;;;5072162;28;20455;-72
2024/02/21 14:02:48;;;;;;;56.07;2.33;;;;;;;;;;5071589;28;20827;-71
2024/02/21 14:05:15;;;;;;;57.77;2.90;;;;;;;;;;5072004;28;20562;-71
2024/02/21 14:07:44;;;;;;;59.13;3.63;;;;;;;;;;5071865;28;20513;-73
2024/02/21 14:10:11;;;;;;;56.07;2.37;;;;;;;;;;5072104;28;20617;-71
2024/02/21 14:12:40;;;;;;;56.67;2.60;;;;;;;;;;5071804;28;20550;-71
2024/02/21 14:15:08;;;;;;;56.80;2.70;;;;;;;;;;5071516;28;20464;-71
2024/02/21 14:17:35;;;;;;;57.40;2.80;;;;;;;;;;5071794;28;20440;-71
2024/02/21 14:20:04;;;;;;;58.07;2.53;;;;;;;;;;5071707;28;20821;-70
2024/02/21 14:22:31;;;;;;;55.80;2.10;;;;;;;;;;5056242;28;20453;-71
2024/02/21 14:25:00;;;;;;;56.83;2.50;;;;;;;;;;5051479;28;20547;-70
2024/02/21 14:27:28;;;;;;;58.07;2.67;;;;;;;;;;5051348;28;21025;-71
2024/02/21 14:29:55;;;;;;;56.00;2.30;;;;;;;;;;5051341;28;20535;-70
2024/02/21 14:32:22;;;;;;;57.77;2.90;;;;;;;;;;5051370;28;20456;-70
2024/02/21 14:34:49;;;;;;;58.83;2.90;;;;;;;;;;5051243;28;20564;-70